トロムソ の空港の天気 - METARとTAF

トロムソ空港 ( ENTC / TOS ) - ノルウェー トロムス県トロムソ
飛行場実況気象(Metar)
観測時間06/17 21:20 CEST (06/17 19:20 UTC)
風向・風速北北東 7m/s
視程10km以上
天気現象
なし
気温8℃
湿度71%
気圧1010hPa
METARENTC 171920Z 03013KT CAVOK 08/03 Q1010 NOSIG RMK WIND 2600FT 31002KT
過去の天気等 Google飛行場航空写真 Wunderground天気予報

過去48時間のMETAR

飛行場予報(TAF)
発表時間: -
13日14時 CEST ~ 13日23時 CEST に一時的に
風向・風速北北東 9m/s
TAF ENTC 1300/1324 03008KT CAVOK
TEMPO 1312/1321 03018KT